createdAt,value
2022-10-17T00:01:15.032Z,16.86
2022-10-17T00:03:43.420Z,16.80
2022-10-17T00:06:14.017Z,16.83
2022-10-17T00:08:43.628Z,16.92
2022-10-17T00:11:18.537Z,16.86
2022-10-17T00:13:47.385Z,16.80
2022-10-17T00:16:16.929Z,16.79
2022-10-17T00:18:45.304Z,16.83
2022-10-17T00:21:17.661Z,16.88
2022-10-17T00:23:46.435Z,16.88
2022-10-17T00:26:17.007Z,16.86
2022-10-17T00:28:47.930Z,16.87
2022-10-17T00:31:18.776Z,16.91
2022-10-17T00:33:48.194Z,16.87
2022-10-17T00:36:20.163Z,16.94
2022-10-17T00:38:52.232Z,16.93
2022-10-17T00:41:24.760Z,16.91
2022-10-17T00:43:56.797Z,16.89
2022-10-17T00:46:30.471Z,16.92
2022-10-17T00:49:02.541Z,16.84
2022-10-17T00:51:35.651Z,16.89
2022-10-17T00:54:05.873Z,16.96
2022-10-17T00:56:35.705Z,17.03
2022-10-17T01:01:41.073Z,16.89
2022-10-17T01:04:09.658Z,16.97
2022-10-17T01:06:38.058Z,16.99
2022-10-17T01:09:06.629Z,17.06
2022-10-17T01:11:45.340Z,17.06
2022-10-17T01:14:22.970Z,17.08
2022-10-17T01:16:57.411Z,17.04
2022-10-17T01:19:45.538Z,17.08
2022-10-17T01:22:24.579Z,17.07
2022-10-17T01:25:12.489Z,17.06
2022-10-17T01:27:57.695Z,17.10
2022-10-17T01:31:10.189Z,17.06
2022-10-17T01:33:47.355Z,17.09
2022-10-17T01:36:27.041Z,17.04
2022-10-17T01:39:01.893Z,17.07
2022-10-17T01:41:40.370Z,16.97
2022-10-17T01:44:13.689Z,16.99
2022-10-17T01:46:46.160Z,17.02
2022-10-17T01:49:18.310Z,17.00
2022-10-17T01:51:52.265Z,17.03
2022-10-17T01:54:26.052Z,17.03
2022-10-17T01:56:59.347Z,17.01
2022-10-17T01:59:34.742Z,16.98
2022-10-17T02:02:04.973Z,16.92
2022-10-17T02:04:33.959Z,16.83
2022-10-17T02:07:07.602Z,16.76
2022-10-17T02:09:36.934Z,16.66
2022-10-17T02:12:16.864Z,16.55
2022-10-17T02:14:57.738Z,16.42
2022-10-17T02:17:36.843Z,16.43
2022-10-17T02:20:14.797Z,16.36
2022-10-17T02:22:50.493Z,16.32
2022-10-17T02:25:28.029Z,16.31
2022-10-17T02:28:04.656Z,16.36
2022-10-17T02:30:40.894Z,16.46
2022-10-17T02:33:14.734Z,16.50
2022-10-17T02:35:48.203Z,16.45
2022-10-17T02:38:19.234Z,16.39
2022-10-17T02:40:50.687Z,16.42
2022-10-17T02:43:19.445Z,16.44
2022-10-17T02:45:48.730Z,16.45
2022-10-17T02:48:26.696Z,16.41
2022-10-17T02:51:02.868Z,16.41
2022-10-17T02:53:40.928Z,16.36
2022-10-17T02:56:15.724Z,16.35
2022-10-17T02:58:46.997Z,16.34
2022-10-17T03:01:17.320Z,16.39
2022-10-17T03:03:47.474Z,16.42
2022-10-17T03:06:15.877Z,16.35
2022-10-17T03:08:44.378Z,16.45
2022-10-17T03:11:13.028Z,16.44
2022-10-17T03:13:41.465Z,16.45
2022-10-17T03:16:09.868Z,16.41
2022-10-17T03:18:39.850Z,16.39
2022-10-17T03:21:11.313Z,16.44
2022-10-17T03:23:39.882Z,16.43
2022-10-17T03:26:09.222Z,16.42
2022-10-17T03:28:38.087Z,16.41
2022-10-17T03:31:10.718Z,16.43
2022-10-17T03:33:40.235Z,16.39
2022-10-17T03:36:12.578Z,16.43
2022-10-17T03:38:41.678Z,16.34
2022-10-17T03:41:10.584Z,16.35
2022-10-17T03:43:40.808Z,16.33
2022-10-17T03:46:10.391Z,16.38
2022-10-17T03:48:39.660Z,16.32
2022-10-17T03:51:11.272Z,16.32
2022-10-17T03:53:47.550Z,16.30
2022-10-17T03:56:17.877Z,16.35
2022-10-17T03:58:51.584Z,16.26
2022-10-17T04:01:20.799Z,16.33
2022-10-17T04:03:51.381Z,16.34
2022-10-17T04:06:22.766Z,16.35
2022-10-17T04:08:51.485Z,16.42
2022-10-17T04:11:26.989Z,16.41
2022-10-17T04:14:00.273Z,16.41
2022-10-17T04:16:30.283Z,16.37
2022-10-17T04:19:04.640Z,16.36
2022-10-17T04:21:40.444Z,16.45
2022-10-17T04:24:11.965Z,16.43
2022-10-17T04:26:58.960Z,16.46
2022-10-17T04:29:31.014Z,16.45
2022-10-17T04:32:15.113Z,16.49
2022-10-17T04:34:51.366Z,16.46
2022-10-17T04:37:24.105Z,16.50
2022-10-17T04:39:55.112Z,16.54
2022-10-17T04:42:25.999Z,16.54
2022-10-17T04:44:55.737Z,16.57
2022-10-17T04:47:26.556Z,16.64
2022-10-17T04:49:55.014Z,16.64
2022-10-17T04:52:26.314Z,16.62
2022-10-17T04:54:55.435Z,16.54
2022-10-17T04:57:24.867Z,16.51
2022-10-17T05:00:10.584Z,16.46
2022-10-17T05:02:55.332Z,16.39
2022-10-17T05:05:23.777Z,16.40
2022-10-17T05:07:56.369Z,16.41
2022-10-17T05:10:27.861Z,16.39
2022-10-17T05:12:56.336Z,16.36
2022-10-17T05:15:28.022Z,16.33
2022-10-17T05:17:57.490Z,16.32
2022-10-17T05:20:27.964Z,16.33
2022-10-17T05:22:59.721Z,16.31
2022-10-17T05:25:32.674Z,16.26
2022-10-17T05:28:01.034Z,16.35
2022-10-17T05:30:31.445Z,16.35
2022-10-17T05:33:03.336Z,16.31
2022-10-17T05:35:33.006Z,16.28
2022-10-17T05:38:02.798Z,16.22
2022-10-17T05:40:34.340Z,16.22
2022-10-17T05:43:02.701Z,16.22
2022-10-17T05:45:32.588Z,16.23
2022-10-17T05:48:01.876Z,16.16
2022-10-17T05:50:30.701Z,16.19
2022-10-17T05:53:08.229Z,16.17
2022-10-17T05:55:41.870Z,16.15
2022-10-17T05:58:17.637Z,16.19
2022-10-17T06:00:58.118Z,16.18
2022-10-17T06:03:27.244Z,16.22
2022-10-17T06:05:55.621Z,16.25
2022-10-17T06:08:25.764Z,16.25
2022-10-17T06:10:54.259Z,16.28
2022-10-17T06:13:23.149Z,16.31
2022-10-17T06:15:56.589Z,16.29
2022-10-17T06:18:26.286Z,16.36
2022-10-17T06:20:55.254Z,16.39
2022-10-17T06:23:25.154Z,16.41
2022-10-17T06:26:00.548Z,16.50
2022-10-17T06:28:30.787Z,16.56
2022-10-17T06:31:02.020Z,16.55
2022-10-17T06:33:30.464Z,16.64
2022-10-17T06:35:58.845Z,16.76
2022-10-17T06:38:29.494Z,16.88
2022-10-17T06:41:08.138Z,17.01
2022-10-17T06:43:37.254Z,17.48
2022-10-17T06:46:26.618Z,18.03
2022-10-17T06:49:01.571Z,18.04
2022-10-17T06:51:37.572Z,17.83
2022-10-17T06:54:10.580Z,17.85
2022-10-17T06:56:39.060Z,17.95
2022-10-17T06:59:30.467Z,18.00
2022-10-17T07:02:08.300Z,18.01
2022-10-17T07:04:38.907Z,17.84
2022-10-17T07:07:07.503Z,17.80
2022-10-17T07:09:37.953Z,17.80
2022-10-17T07:12:08.315Z,17.86
2022-10-17T07:14:36.862Z,17.95
2022-10-17T07:17:05.667Z,17.97
2022-10-17T07:19:35.392Z,17.98
2022-10-17T07:22:04.218Z,18.05
2022-10-17T07:24:38.330Z,17.99
2022-10-17T07:27:17.033Z,18.11
2022-10-17T07:29:45.479Z,18.08
2022-10-17T07:32:20.547Z,18.10
2022-10-17T07:34:49.166Z,18.14
2022-10-17T07:37:17.617Z,18.22
2022-10-17T07:39:54.442Z,18.34
2022-10-17T07:42:23.171Z,18.60
2022-10-17T07:44:52.658Z,18.77
2022-10-17T07:47:22.248Z,18.88
2022-10-17T07:49:51.993Z,19.03
2022-10-17T07:52:20.430Z,19.02
2022-10-17T07:54:48.768Z,19.03
2022-10-17T07:57:18.406Z,18.96
2022-10-17T07:59:51.183Z,19.14
2022-10-17T08:02:23.767Z,19.33
2022-10-17T08:04:52.885Z,19.29
2022-10-17T08:07:25.544Z,19.18
2022-10-17T08:09:57.998Z,18.80
2022-10-17T08:12:35.196Z,19.11
2022-10-17T08:15:03.904Z,19.80
2022-10-17T08:17:32.662Z,20.45
2022-10-17T08:20:01.219Z,20.51
2022-10-17T08:22:30.049Z,20.50
2022-10-17T08:24:58.951Z,21.08
2022-10-17T08:27:29.725Z,21.43
2022-10-17T08:29:58.552Z,21.62
2022-10-17T08:32:29.055Z,21.74
2022-10-17T08:34:57.907Z,22.20
2022-10-17T08:37:26.715Z,23.00
2022-10-17T08:39:55.217Z,23.44
2022-10-17T08:42:43.925Z,22.93
2022-10-17T08:45:24.180Z,24.51
2022-10-17T08:47:58.718Z,24.67
2022-10-17T08:50:36.399Z,23.55
2022-10-17T08:53:12.272Z,22.64
2022-10-17T08:55:45.580Z,21.77
2022-10-17T08:58:20.149Z,21.29
2022-10-17T09:00:58.035Z,20.97
2022-10-17T09:03:46.949Z,21.04
2022-10-17T09:06:30.603Z,20.94
2022-10-17T09:09:12.342Z,20.72
2022-10-17T09:12:04.553Z,20.45
2022-10-17T09:15:00.389Z,20.51
2022-10-17T09:17:40.040Z,20.28
2022-10-17T09:20:13.958Z,20.37
2022-10-17T09:22:47.292Z,20.50
2022-10-17T09:25:19.785Z,20.65
2022-10-17T09:27:50.697Z,20.61
2022-10-17T09:30:45.234Z,20.55
2022-10-17T09:33:28.397Z,20.60
2022-10-17T09:36:10.203Z,20.64
2022-10-17T09:38:42.317Z,20.48
2022-10-17T09:41:44.106Z,20.49
2022-10-17T09:44:17.009Z,20.54
2022-10-17T09:46:58.030Z,20.77
2022-10-17T09:49:32.645Z,20.90
2022-10-17T09:52:01.950Z,20.70
2022-10-17T09:54:42.767Z,20.41
2022-10-17T09:57:13.399Z,20.27
2022-10-17T09:59:44.975Z,20.01
2022-10-17T10:02:25.168Z,19.85
2022-10-17T10:05:06.589Z,19.92
2022-10-17T10:07:38.314Z,19.67
2022-10-17T10:10:09.655Z,19.76
2022-10-17T10:12:40.017Z,19.70
2022-10-17T10:15:34.489Z,19.69
2022-10-17T10:18:04.927Z,19.61
2022-10-17T10:20:35.971Z,19.59
2022-10-17T10:23:17.093Z,19.52
2022-10-17T10:25:56.222Z,19.52
2022-10-17T10:28:28.754Z,19.45
2022-10-17T10:30:59.683Z,19.37
2022-10-17T10:33:31.601Z,19.41
2022-10-17T10:36:03.267Z,19.46
2022-10-17T10:38:33.759Z,19.38
2022-10-17T10:41:07.845Z,19.49
2022-10-17T10:43:39.392Z,19.55
2022-10-17T10:46:19.161Z,19.55
2022-10-17T10:48:58.492Z,19.62
2022-10-17T10:51:33.554Z,19.72
2022-10-17T10:54:04.674Z,19.79
2022-10-17T10:56:38.831Z,19.95
2022-10-17T10:59:18.879Z,20.11
2022-10-17T11:01:53.231Z,20.19
2022-10-17T11:04:30.251Z,20.32
2022-10-17T11:07:04.685Z,20.35
2022-10-17T11:09:46.362Z,20.52
2022-10-17T11:12:20.436Z,20.58
2022-10-17T11:14:54.869Z,20.51
2022-10-17T11:17:32.467Z,20.61
2022-10-17T11:20:15.004Z,20.44
2022-10-17T11:22:47.698Z,20.29
2022-10-17T11:25:29.747Z,20.50
2022-10-17T11:28:03.695Z,20.62
2022-10-17T11:30:39.196Z,20.57
2022-10-17T11:33:08.849Z,20.61
2022-10-17T11:35:43.118Z,20.63
2022-10-17T11:38:18.696Z,20.71
2022-10-17T11:40:51.367Z,20.70
2022-10-17T11:43:24.183Z,20.85
2022-10-17T11:45:57.945Z,20.89
2022-10-17T11:48:29.860Z,20.88
2022-10-17T11:54:01.182Z,20.75
2022-10-17T11:56:42.725Z,20.66
2022-10-17T11:59:30.959Z,20.72
2022-10-17T12:02:05.626Z,20.70
2022-10-17T12:04:49.615Z,20.63
2022-10-17T12:07:25.367Z,20.62
2022-10-17T12:09:58.803Z,20.60
2022-10-17T12:12:30.049Z,20.51
2022-10-17T12:15:29.335Z,20.31
2022-10-17T12:18:01.472Z,20.28
2022-10-17T12:20:33.217Z,20.27
2022-10-17T12:23:25.019Z,20.19
2022-10-17T12:25:56.977Z,20.17
2022-10-17T12:28:30.472Z,20.17
2022-10-17T12:31:02.720Z,20.12
2022-10-17T12:33:34.650Z,20.10
2022-10-17T12:36:46.937Z,20.14
2022-10-17T12:39:54.812Z,20.26
2022-10-17T12:42:46.818Z,20.33
2022-10-17T12:45:56.919Z,20.36
2022-10-17T12:49:04.204Z,20.32
2022-10-17T12:52:07.537Z,20.28
2022-10-17T12:54:48.039Z,20.27
2022-10-17T12:57:35.959Z,20.25
2022-10-17T13:00:15.067Z,20.05
2022-10-17T13:02:43.698Z,20.10
2022-10-17T13:05:16.584Z,19.99
2022-10-17T13:07:48.251Z,20.03
2022-10-17T13:13:07.458Z,19.97
2022-10-17T13:15:37.789Z,19.95
2022-10-17T13:18:06.851Z,20.00
2022-10-17T13:20:35.330Z,19.89
2022-10-17T13:23:04.127Z,19.98
2022-10-17T13:25:35.468Z,19.95
2022-10-17T13:28:14.096Z,19.91
2022-10-17T13:30:49.669Z,19.94
2022-10-17T13:33:35.227Z,19.89
2022-10-17T13:36:07.960Z,19.87
2022-10-17T13:38:39.031Z,19.88
2022-10-17T13:41:35.839Z,19.76
2022-10-17T13:44:11.458Z,19.76
2022-10-17T13:46:41.117Z,19.79
2022-10-17T13:49:33.437Z,19.80
2022-10-17T13:52:04.642Z,19.74
2022-10-17T13:54:36.185Z,19.85
2022-10-17T13:57:06.459Z,19.82
2022-10-17T13:59:39.875Z,19.70
2022-10-17T14:02:15.268Z,19.74
2022-10-17T14:05:15.697Z,19.65
2022-10-17T14:08:05.519Z,19.59
2022-10-17T14:10:28.581Z,19.62
2022-10-17T14:12:57.843Z,19.52
2022-10-17T14:15:29.631Z,19.58
2022-10-17T14:18:04.241Z,19.58
2022-10-17T14:23:36.527Z,19.56
2022-10-17T14:26:07.511Z,19.59
2022-10-17T14:28:36.405Z,19.57
2022-10-17T14:31:25.981Z,19.48
2022-10-17T14:33:55.251Z,19.46
2022-10-17T14:36:35.783Z,19.43
2022-10-17T14:39:11.858Z,19.36
2022-10-17T14:41:45.758Z,19.39
2022-10-17T14:44:26.610Z,19.40
2022-10-17T14:47:00.236Z,19.25
2022-10-17T14:49:36.569Z,19.18
2022-10-17T14:52:27.314Z,19.11
2022-10-17T14:54:59.889Z,19.02
2022-10-17T14:57:35.775Z,18.98
2022-10-17T15:00:05.284Z,18.86
2022-10-17T15:02:35.049Z,18.81
2022-10-17T15:05:03.517Z,18.72
2022-10-17T15:07:31.912Z,18.62
2022-10-17T15:10:00.611Z,18.55
2022-10-17T15:12:29.160Z,18.42
2022-10-17T15:14:58.130Z,18.39
2022-10-17T15:17:28.549Z,18.31
2022-10-17T15:19:58.850Z,18.11
2022-10-17T15:22:27.885Z,17.96
2022-10-17T15:24:56.675Z,17.86
2022-10-17T15:27:27.631Z,17.75
2022-10-17T15:29:56.168Z,17.64
2022-10-17T15:32:24.773Z,17.54
2022-10-17T15:34:53.152Z,17.43
2022-10-17T15:37:25.796Z,17.32
2022-10-17T15:39:55.706Z,17.12
2022-10-17T15:42:28.031Z,16.80
2022-10-17T15:44:57.281Z,16.57
2022-10-17T15:47:29.239Z,16.28
2022-10-17T15:49:58.497Z,16.19
2022-10-17T15:52:28.823Z,15.98
2022-10-17T15:54:59.676Z,15.94
2022-10-17T15:57:38.199Z,15.83
2022-10-17T16:00:16.612Z,15.84
2022-10-17T16:02:46.276Z,15.77
2022-10-17T16:05:17.049Z,15.77
2022-10-17T16:07:47.804Z,15.69
2022-10-17T16:10:17.002Z,15.69
2022-10-17T16:12:46.362Z,15.59
2022-10-17T16:15:16.382Z,15.66
2022-10-17T16:17:45.760Z,15.62
2022-10-17T16:20:15.780Z,15.62
2022-10-17T16:22:47.664Z,15.69
2022-10-17T16:25:24.613Z,15.65
2022-10-17T16:27:54.982Z,15.57
2022-10-17T16:30:27.438Z,15.57
2022-10-17T16:32:57.273Z,15.58
2022-10-17T16:35:30.650Z,15.53
2022-10-17T16:38:03.357Z,15.62
2022-10-17T16:40:35.658Z,15.67
2022-10-17T16:43:04.497Z,15.69
2022-10-17T16:45:33.115Z,15.72
2022-10-17T16:48:01.579Z,15.67
2022-10-17T16:50:31.181Z,15.58
2022-10-17T16:52:59.848Z,15.51
2022-10-17T16:55:30.054Z,15.50
2022-10-17T16:57:59.954Z,15.48
2022-10-17T17:00:28.557Z,15.43
2022-10-17T17:02:57.281Z,15.34
2022-10-17T17:05:25.719Z,15.31
2022-10-17T17:07:55.655Z,15.28
2022-10-17T17:10:24.143Z,15.25
2022-10-17T17:12:53.915Z,15.24
2022-10-17T17:15:22.274Z,15.18
2022-10-17T17:17:54.876Z,15.15
2022-10-17T17:20:24.146Z,15.12
2022-10-17T17:22:52.620Z,15.12
2022-10-17T17:25:21.062Z,15.08
2022-10-17T17:27:49.552Z,15.04
2022-10-17T17:30:19.645Z,15.01
2022-10-17T17:32:48.095Z,14.99
2022-10-17T17:35:16.534Z,14.98
2022-10-17T17:37:45.137Z,14.91
2022-10-17T17:40:13.703Z,14.88
2022-10-17T17:42:42.193Z,14.82
2022-10-17T17:45:12.091Z,14.78
2022-10-17T17:47:42.201Z,14.76
2022-10-17T17:50:10.841Z,14.72
2022-10-17T17:52:41.788Z,14.64
2022-10-17T17:55:10.648Z,14.60
2022-10-17T17:57:39.357Z,14.59
2022-10-17T18:00:09.185Z,14.57
2022-10-17T18:02:40.825Z,14.63
2022-10-17T18:05:13.446Z,14.61
2022-10-17T18:07:41.804Z,14.54
2022-10-17T18:12:43.847Z,14.50
2022-10-17T18:15:12.712Z,14.49
2022-10-17T18:17:41.451Z,14.42
2022-10-17T18:20:10.929Z,14.41
2022-10-17T18:22:41.953Z,14.40
2022-10-17T18:25:10.719Z,14.43
2022-10-17T18:27:39.231Z,14.38
2022-10-17T18:30:08.916Z,14.38
2022-10-17T18:32:50.545Z,14.38
2022-10-17T18:35:19.233Z,14.38
2022-10-17T18:37:49.863Z,14.40
2022-10-17T18:40:18.601Z,14.37
2022-10-17T18:42:46.973Z,14.35
2022-10-17T18:45:15.644Z,14.32
2022-10-17T18:47:45.286Z,14.27
2022-10-17T18:50:13.881Z,14.22
2022-10-17T18:52:42.278Z,14.20
2022-10-17T18:55:12.049Z,14.21
2022-10-17T18:57:40.407Z,14.15
2022-10-17T19:00:10.724Z,14.14
2022-10-17T19:02:39.528Z,14.09
2022-10-17T19:05:08.843Z,14.07
2022-10-17T19:07:37.261Z,14.06
2022-10-17T19:10:06.004Z,14.05
2022-10-17T19:12:35.899Z,14.02
2022-10-17T19:15:04.716Z,14.02
2022-10-17T19:17:33.278Z,13.96
2022-10-17T19:20:01.808Z,13.94
2022-10-17T19:22:31.204Z,13.93
2022-10-17T19:24:59.715Z,13.93
2022-10-17T19:27:28.497Z,13.92
2022-10-17T19:29:59.037Z,13.91
2022-10-17T19:32:27.529Z,13.89
2022-10-17T19:34:56.075Z,13.87
2022-10-17T19:37:24.638Z,13.87
2022-10-17T19:39:53.089Z,13.89
2022-10-17T19:42:21.468Z,13.90
2022-10-17T19:44:50.077Z,13.87
2022-10-17T19:47:19.933Z,13.85
2022-10-17T19:49:50.125Z,13.85
2022-10-17T19:52:18.738Z,13.83
2022-10-17T19:54:47.066Z,13.81
2022-10-17T19:57:15.544Z,13.77
2022-10-17T19:59:43.916Z,13.75
2022-10-17T20:02:14.181Z,13.78
2022-10-17T20:04:54.442Z,13.79
2022-10-17T20:07:32.721Z,13.77
2022-10-17T20:10:01.439Z,13.75
2022-10-17T20:12:30.020Z,13.66
2022-10-17T20:14:58.609Z,13.63
2022-10-17T20:17:27.201Z,13.65
2022-10-17T20:19:57.116Z,13.71
2022-10-17T20:22:25.562Z,13.75
2022-10-17T20:24:53.990Z,13.76
2022-10-17T20:27:27.421Z,13.73
2022-10-17T20:30:01.499Z,13.67
2022-10-17T20:32:32.115Z,13.62
2022-10-17T20:35:02.061Z,13.57
2022-10-17T20:37:30.783Z,13.54
2022-10-17T20:40:22.798Z,13.55
2022-10-17T20:42:47.609Z,13.56
2022-10-17T20:45:15.982Z,13.61
2022-10-17T20:47:49.158Z,13.63
2022-10-17T20:50:21.300Z,13.57
2022-10-17T20:52:55.815Z,13.59
2022-10-17T20:55:29.640Z,13.56
2022-10-17T20:57:58.105Z,13.58
2022-10-17T21:00:27.168Z,13.63
2022-10-17T21:05:30.453Z,13.63
2022-10-17T21:07:58.788Z,13.57
2022-10-17T21:10:35.609Z,13.58
2022-10-17T21:13:04.350Z,13.54
2022-10-17T21:15:33.173Z,13.51
2022-10-17T21:18:01.639Z,13.52
2022-10-17T21:20:31.516Z,13.52
2022-10-17T21:23:00.584Z,13.53
2022-10-17T21:25:29.108Z,13.54
2022-10-17T21:27:57.464Z,13.55
2022-10-17T21:30:25.887Z,13.54
2022-10-17T21:32:55.940Z,13.49
2022-10-17T21:35:24.449Z,13.48
2022-10-17T21:37:54.581Z,13.50
2022-10-17T21:40:23.226Z,13.49
2022-10-17T21:42:51.598Z,13.51
2022-10-17T21:45:25.818Z,13.51
2022-10-17T21:48:18.548Z,13.53
2022-10-17T21:50:42.947Z,13.55
2022-10-17T21:53:12.684Z,13.57
2022-10-17T21:55:41.040Z,13.54
2022-10-17T21:58:09.395Z,13.51
2022-10-17T22:00:37.883Z,13.49
2022-10-17T22:03:07.173Z,13.48
2022-10-17T22:05:35.737Z,13.50
2022-10-17T22:08:04.209Z,13.47
2022-10-17T22:10:36.858Z,13.44
2022-10-17T22:13:05.678Z,13.45
2022-10-17T22:15:34.076Z,13.47
2022-10-17T22:18:02.492Z,13.43
2022-10-17T22:20:30.870Z,13.39
2022-10-17T22:22:59.226Z,13.34
2022-10-17T22:25:27.713Z,13.33
2022-10-17T22:27:57.429Z,13.37
2022-10-17T22:30:25.892Z,13.39
2022-10-17T22:32:54.217Z,13.31
2022-10-17T22:35:22.564Z,13.28
2022-10-17T22:37:50.935Z,13.23
2022-10-17T22:40:19.406Z,13.24
2022-10-17T22:42:47.822Z,13.26
2022-10-17T22:45:17.593Z,13.30
2022-10-17T22:47:46.008Z,13.30
2022-10-17T22:50:14.610Z,13.30
2022-10-17T22:52:43.081Z,13.27
2022-10-17T22:55:11.456Z,13.31
2022-10-17T22:57:39.785Z,13.32
2022-10-17T23:00:10.817Z,13.31
2022-10-17T23:02:41.152Z,13.28
2022-10-17T23:05:10.161Z,13.37
2022-10-17T23:07:38.652Z,13.37
2022-10-17T23:10:07.890Z,13.30
2022-10-17T23:12:36.345Z,13.26
2022-10-17T23:15:05.530Z,13.32
2022-10-17T23:17:33.912Z,13.38
2022-10-17T23:20:03.699Z,13.37
2022-10-17T23:22:32.365Z,13.36
2022-10-17T23:25:00.977Z,13.36
2022-10-17T23:29:58.662Z,13.41
2022-10-17T23:32:27.027Z,13.39
2022-10-17T23:34:55.448Z,13.45
2022-10-17T23:37:25.310Z,13.50
2022-10-17T23:39:53.849Z,13.51
2022-10-17T23:42:22.335Z,13.58
2022-10-17T23:44:50.656Z,13.64
2022-10-17T23:47:19.061Z,13.65
2022-10-17T23:49:47.398Z,13.63
2022-10-17T23:52:15.737Z,13.62
2022-10-17T23:54:45.442Z,13.64
2022-10-17T23:57:13.804Z,13.64
2022-10-17T23:59:42.226Z,13.65
